Aviation Digital Data Service (ADDS)

Output produced by METARs form (0242 UTC 24 July 2017)
found at http://www.aviationweather.gov/adds/metars/
 
TGPY 232200Z 2400/2424 08012KT 9999 SCT018 
     PROB40 
     TEMPO 2406/2412 5000 SHRA BKN018